Time;durP1;ratioP1;P1;durP2;ratioP2;P2;SDS_P1;SDS_P2;PMS_P1;PMS_P2;Temp;Humidity;BMP_temperature;BMP_pressure;BME280_temperature;BME280_humidity;BME280_pressure;Samples;Min_cycle;Max_cycle;Signal;HPM_P1;HPM_P2
2021/09/22 00:00:22;;;;;;;19.92;16.05;;;;;;;12.68;49.56;94487.53;5029057;28;20447;-77
2021/09/22 00:02:49;;;;;;;21.85;15.98;;;;;;;12.77;49.55;94491.81;5024776;28;20041;-75
2021/09/22 00:05:15;;;;;;;18.63;15.05;;;;;;;12.78;48.90;94489.94;5032538;28;20027;-74
2021/09/22 00:07:41;;;;;;;20.58;15.38;;;;;;;12.67;49.05;94478.75;5030568;28;20060;-74
2021/09/22 00:10:10;;;;;;;19.58;15.15;;;;;;;12.35;49.49;94426.53;5029794;28;20035;-74
2021/09/22 00:12:35;;;;;;;21.85;15.40;;;;;;;12.80;48.85;94472.53;5032410;28;20564;-75
2021/09/22 00:15:04;;;;;;;21.45;15.85;;;;;;;12.62;49.39;94476.22;5032745;28;20061;-75
2021/09/22 00:17:29;;;;;;;20.10;15.40;;;;;;;12.41;49.76;94459.97;5027038;28;20024;-74
2021/09/22 00:19:55;;;;;;;17.25;14.32;;;;;;;12.46;49.62;94469.72;5029261;28;20036;-75
2021/09/22 00:22:23;;;;;;;24.60;15.52;;;;;;;12.28;49.98;94460.06;5034017;28;20047;-74
2021/09/22 00:24:50;;;;;;;22.95;15.50;;;;;;;12.19;50.46;94469.91;5026870;28;20429;-76
2021/09/22 00:27:16;;;;;;;21.23;14.95;;;;;;;11.76;51.09;94435.81;5047203;28;20095;-75
2021/09/22 00:29:41;;;;;;;20.17;14.52;;;;;;;11.85;51.57;94459.84;5031878;28;20045;-74
2021/09/22 00:32:07;;;;;;;18.77;14.43;;;;;;;11.61;52.09;94460.16;5049876;28;20086;-74
2021/09/22 00:34:33;;;;;;;17.95;15.07;;;;;;;11.41;52.50;94445.41;5036981;28;20044;-74
2021/09/22 00:36:58;;;;;;;20.70;15.48;;;;;;;11.52;52.44;94432.69;5034764;28;20442;-75
2021/09/22 00:39:24;;;;;;;21.77;15.68;;;;;;;11.78;52.12;94438.19;5034438;28;20068;-75
2021/09/22 00:41:50;;;;;;;21.02;14.90;;;;;;;11.99;51.91;94453.34;5038006;28;20033;-76
2021/09/22 00:44:16;;;;;;;16.83;14.02;;;;;;;12.01;51.50;94450.38;5045587;28;20075;-75
2021/09/22 00:46:41;;;;;;;20.08;15.93;;;;;;;12.11;51.53;94454.66;5034316;28;20120;-75
2021/09/22 00:49:06;;;;;;;18.73;13.98;;;;;;;12.15;51.24;94455.63;5038265;28;20044;-75
2021/09/22 00:51:33;;;;;;;17.33;13.90;;;;;;;11.99;51.29;94444.56;5031012;28;20044;-76
2021/09/22 00:53:59;;;;;;;18.90;14.63;;;;;;;12.03;51.05;94454.28;5038047;28;20398;-75
2021/09/22 00:56:24;;;;;;;17.88;13.93;;;;;;;12.07;50.97;94435.03;5035420;28;20429;-75
2021/09/22 00:58:50;;;;;;;18.50;14.38;;;;;;;12.38;50.67;94457.13;5032478;28;20040;-75
2021/09/22 01:01:18;;;;;;;19.70;15.75;;;;;;;12.29;50.19;94426.97;5035833;28;20044;-75
2021/09/22 01:03:43;;;;;;;20.30;14.95;;;;;;;12.58;50.28;94442.44;5035076;28;20045;-75
2021/09/22 01:06:09;;;;;;;19.17;13.82;;;;;;;12.74;49.46;94433.72;5037255;28;20037;-75
2021/09/22 01:08:36;;;;;;;18.08;13.48;;;;;;;12.51;48.66;94424.22;5032763;28;20068;-75
2021/09/22 01:11:01;;;;;;;19.60;13.68;;;;;;;12.43;48.53;94424.97;5039155;28;20028;-76
2021/09/22 01:13:27;;;;;;;16.40;13.15;;;;;;;12.05;48.93;94416.66;5034802;28;20059;-74
2021/09/22 01:15:53;;;;;;;16.20;11.82;;;;;;;12.20;48.76;94428.81;5037225;28;20033;-75
2021/09/22 01:18:22;;;;;;;19.55;13.63;;;;;;;12.19;47.98;94424.56;5035514;28;20074;-75
2021/09/22 01:20:51;;;;;;;14.93;12.65;;;;;;;12.11;47.93;94398.66;5032445;28;20045;-74
2021/09/22 01:23:17;;;;;;;16.90;13.23;;;;;;;12.19;48.04;94392.56;5034632;28;20075;-75
2021/09/22 01:25:45;;;;;;;16.25;12.63;;;;;;;12.20;48.17;94416.28;5035285;28;20028;-75
2021/09/22 01:28:12;;;;;;;17.98;12.93;;;;;;;11.89;48.82;94413.63;5033100;28;20413;-75
2021/09/22 01:30:38;;;;;;;21.02;12.55;;;;;;;11.80;48.99;94420.00;5036553;28;20055;-75
2021/09/22 01:33:06;;;;;;;15.15;11.68;;;;;;;11.83;48.83;94412.16;5035640;28;20376;-75
2021/09/22 01:35:34;;;;;;;20.25;11.75;;;;;;;12.03;48.58;94395.63;5033565;28;20037;-76
2021/09/22 01:38:00;;;;;;;14.68;10.65;;;;;;;12.10;47.97;94400.53;5036466;28;20033;-75
2021/09/22 01:40:26;;;;;;;14.95;11.95;;;;;;;12.12;47.39;94389.56;5034986;28;20369;-76
2021/09/22 01:42:51;;;;;;;15.80;11.63;;;;;;;12.23;46.76;94402.31;5029070;28;21024;-75
2021/09/22 01:45:17;;;;;;;16.75;10.82;;;;;;;12.17;46.75;94402.78;5032218;28;20041;-75
2021/09/22 01:47:42;;;;;;;14.88;10.80;;;;;;;11.83;46.92;94380.19;5034235;28;20036;-75
2021/09/22 01:50:13;;;;;;;11.00;8.90;;;;;;;12.00;46.46;94371.47;5034453;28;20028;-75
2021/09/22 01:52:39;;;;;;;16.42;10.60;;;;;;;11.87;46.88;94399.81;5030601;28;20056;-75
2021/09/22 01:55:06;;;;;;;14.10;10.38;;;;;;;11.91;47.24;94389.31;5031399;28;20094;-75
2021/09/22 01:57:32;;;;;;;11.20;8.73;;;;;;;12.05;46.60;94395.34;5032691;28;20048;-76
2021/09/22 01:59:57;;;;;;;12.10;8.55;;;;;;;11.83;46.34;94384.75;5044821;28;20036;-75
2021/09/22 02:02:23;;;;;;;12.50;8.95;;;;;;;11.69;46.31;94371.50;5033622;28;20188;-75
2021/09/22 02:04:48;;;;;;;14.30;9.95;;;;;;;11.69;46.96;94402.69;5037253;28;20017;-75
2021/09/22 02:07:14;;;;;;;15.60;9.75;;;;;;;11.67;46.86;94407.53;5029403;28;20547;-76
2021/09/22 02:09:39;;;;;;;11.18;9.45;;;;;;;11.73;46.76;94406.34;5050375;28;20037;-75
2021/09/22 02:12:05;;;;;;;9.80;8.27;;;;;;;11.80;46.70;94388.81;5036587;28;20072;-75
2021/09/22 02:14:31;;;;;;;11.57;9.27;;;;;;;11.85;46.43;94396.66;5032557;28;20090;-76
2021/09/22 02:16:56;;;;;;;19.17;9.32;;;;;;;11.76;46.33;94365.75;5033837;28;20044;-75
2021/09/22 02:19:22;;;;;;;13.07;8.57;;;;;;;11.88;45.95;94385.38;5034359;28;20068;-75
2021/09/22 02:21:48;;;;;;;12.02;9.30;;;;;;;11.65;46.04;94370.53;5033319;28;20132;-76
2021/09/22 02:24:14;;;;;;;10.88;9.07;;;;;;;11.90;45.86;94388.53;5034860;28;20045;-76
2021/09/22 02:26:39;;;;;;;10.07;8.10;;;;;;;11.72;45.81;94376.22;5030649;28;20041;-75
2021/09/22 02:29:05;;;;;;;12.00;9.02;;;;;;;12.00;45.63;94398.94;5032657;28;20036;-75
2021/09/22 02:31:30;;;;;;;12.10;8.77;;;;;;;12.22;44.55;94395.44;5034520;28;20037;-75
2021/09/22 02:33:56;;;;;;;11.80;8.75;;;;;;;12.31;44.64;94403.44;5032312;28;20048;-76
2021/09/22 02:36:21;;;;;;;12.10;8.63;;;;;;;12.22;43.92;94402.63;5033121;28;20037;-75
2021/09/22 02:38:47;;;;;;;11.27;7.80;;;;;;;12.21;43.56;94411.72;5033218;28;20041;-75
2021/09/22 02:41:12;;;;;;;12.38;8.63;;;;;;;11.85;43.63;94404.66;5035280;28;20032;-75
2021/09/22 02:43:38;;;;;;;10.35;8.45;;;;;;;12.05;43.63;94411.34;5034657;28;20036;-75
2021/09/22 02:46:03;;;;;;;11.43;8.52;;;;;;;11.69;44.14;94403.47;5031407;28;20071;-75
2021/09/22 02:48:29;;;;;;;12.55;9.40;;;;;;;11.67;44.78;94405.66;5034851;28;20491;-75
2021/09/22 02:50:54;;;;;;;10.82;9.13;;;;;;;11.65;44.31;94397.19;5032931;28;20501;-75
2021/09/22 02:53:20;;;;;;;10.13;8.57;;;;;;;11.71;44.74;94381.84;5034319;28;20020;-75
2021/09/22 02:55:45;;;;;;;15.05;9.55;;;;;;;11.94;44.52;94394.03;5031857;28;20612;-76
2021/09/22 02:58:11;;;;;;;13.40;9.18;;;;;;;11.81;44.23;94397.59;5032995;28;20037;-76
2021/09/22 03:00:37;;;;;;;11.50;8.77;;;;;;;11.88;44.92;94390.72;5033028;28;20040;-76
2021/09/22 03:03:02;;;;;;;10.75;9.20;;;;;;;12.00;44.29;94374.94;5032228;28;20033;-75
2021/09/22 03:05:28;;;;;;;12.38;9.52;;;;;;;11.52;44.22;94310.16;5033083;28;20025;-76
2021/09/22 03:07:53;;;;;;;10.23;8.82;;;;;;;12.16;44.32;94385.19;5032054;28;20049;-76
2021/09/22 03:10:19;;;;;;;10.32;8.70;;;;;;;12.30;43.76;94386.66;5034507;28;20343;-75
2021/09/22 03:12:45;;;;;;;10.32;8.45;;;;;;;12.13;43.67;94380.47;5035030;28;20032;-75
2021/09/22 03:15:11;;;;;;;12.88;9.07;;;;;;;12.18;43.97;94356.31;5031444;28;20044;-75
2021/09/22 03:17:37;;;;;;;9.10;8.10;;;;;;;12.48;43.39;94366.13;5033714;28;20064;-76
2021/09/22 03:20:03;;;;;;;13.20;9.70;;;;;;;12.57;43.50;94366.94;5033398;28;20032;-76
2021/09/22 03:22:28;;;;;;;11.00;8.20;;;;;;;12.66;42.96;94351.78;5031278;28;20522;-75
2021/09/22 03:24:54;;;;;;;13.98;8.48;;;;;;;12.59;42.46;94372.78;5031184;28;20041;-75
2021/09/22 03:27:19;;;;;;;13.02;9.55;;;;;;;12.50;42.76;94374.63;5034740;28;20040;-76
2021/09/22 03:29:45;;;;;;;11.50;9.05;;;;;;;12.39;43.06;94378.66;5030439;28;20115;-75
2021/09/22 03:32:10;;;;;;;10.68;9.40;;;;;;;12.24;43.19;94371.09;5033445;28;20138;-76
2021/09/22 03:34:36;;;;;;;11.85;9.45;;;;;;;12.41;42.76;94376.50;5032481;28;20044;-75
2021/09/22 03:37:01;;;;;;;10.43;9.05;;;;;;;12.18;43.25;94378.44;5032057;28;20566;-75
2021/09/22 03:39:27;;;;;;;9.52;8.52;;;;;;;12.26;43.18;94364.38;5033190;28;20037;-76
2021/09/22 03:41:52;;;;;;;11.73;8.90;;;;;;;12.18;42.80;94356.31;5035645;28;20087;-75
2021/09/22 03:44:18;;;;;;;11.35;8.32;;;;;;;12.45;43.05;94367.56;5030230;28;20427;-75
2021/09/22 03:46:43;;;;;;;10.98;9.52;;;;;;;12.52;42.75;94344.97;5031930;28;20036;-76
2021/09/22 03:49:09;;;;;;;8.65;7.72;;;;;;;12.51;42.72;94354.84;5033408;28;20500;-76
2021/09/22 03:51:34;;;;;;;12.73;8.70;;;;;;;12.55;42.41;94361.13;5029349;28;20040;-76
2021/09/22 03:53:59;;;;;;;12.57;9.32;;;;;;;12.36;42.45;94352.63;5034560;28;20048;-76
2021/09/22 03:56:25;;;;;;;9.82;8.70;;;;;;;12.20;43.12;94332.81;5029776;28;20107;-75
2021/09/22 03:58:50;;;;;;;11.88;8.55;;;;;;;12.22;42.65;94336.75;5030716;28;20344;-75
2021/09/22 04:01:16;;;;;;;11.48;8.68;;;;;;;12.24;43.11;94336.44;5029819;28;20045;-76
2021/09/22 04:03:42;;;;;;;10.32;8.65;;;;;;;12.43;42.79;94347.59;5032939;28;20033;-75
2021/09/22 04:06:08;;;;;;;9.88;8.88;;;;;;;12.40;42.92;94342.91;5030562;28;20723;-75
2021/09/22 04:08:33;;;;;;;11.90;8.45;;;;;;;12.21;42.93;94319.19;5037099;28;20053;-75
2021/09/22 04:10:58;;;;;;;9.13;7.68;;;;;;;12.45;42.76;94340.09;5038199;28;20028;-75
2021/09/22 04:13:25;;;;;;;12.13;8.82;;;;;;;12.47;42.94;94352.00;5034939;28;20041;-75
2021/09/22 04:15:51;;;;;;;9.93;7.90;;;;;;;12.55;42.72;94350.47;5038815;28;20727;-76
2021/09/22 04:18:16;;;;;;;9.95;8.30;;;;;;;12.63;42.79;94352.38;5035450;28;20076;-76
2021/09/22 04:20:42;;;;;;;10.35;7.90;;;;;;;12.61;42.81;94346.59;5033024;28;20071;-76
2021/09/22 04:23:07;;;;;;;9.40;7.95;;;;;;;12.58;42.34;94333.84;5038276;28;20043;-76
2021/09/22 04:25:33;;;;;;;10.63;8.10;;;;;;;12.28;42.58;94316.03;5036955;28;20041;-75
2021/09/22 04:27:58;;;;;;;11.70;8.48;;;;;;;12.44;42.82;94333.19;5033878;28;20527;-74
2021/09/22 04:30:24;;;;;;;8.52;7.43;;;;;;;12.28;43.32;94340.03;5034508;28;20517;-75
2021/09/22 04:32:49;;;;;;;11.05;8.25;;;;;;;12.04;43.34;94319.13;5036564;28;20530;-75
2021/09/22 04:35:14;;;;;;;13.00;9.85;;;;;;;11.93;44.04;94323.19;5037037;28;20545;-74
2021/09/22 04:37:40;;;;;;;13.00;8.90;;;;;;;11.82;44.05;94301.34;5037311;28;20446;-75
2021/09/22 04:40:10;;;;;;;10.25;8.27;;;;;;;11.98;43.97;94321.13;5034240;28;21259;-75
2021/09/22 04:42:36;;;;;;;11.43;8.60;;;;;;;11.99;43.86;94316.59;5029186;28;20068;-75
2021/09/22 04:45:03;;;;;;;9.68;8.02;;;;;;;12.04;43.90;94311.91;5037921;28;20116;-75
2021/09/22 04:47:29;;;;;;;10.55;8.18;;;;;;;12.14;44.03;94308.16;5030367;28;20035;-75
2021/09/22 04:49:57;;;;;;;9.60;8.65;;;;;;;12.12;43.81;94298.91;5037736;28;20034;-75
2021/09/22 04:52:22;;;;;;;11.38;8.48;;;;;;;12.08;43.97;94290.75;5034956;28;20575;-74
2021/09/22 04:54:47;;;;;;;9.82;7.80;;;;;;;12.11;43.92;94287.47;5028131;28;20384;-75
2021/09/22 04:57:13;;;;;;;10.18;8.35;;;;;;;12.20;43.75;94308.81;5036277;28;20067;-75
2021/09/22 04:59:38;;;;;;;9.60;7.70;;;;;;;12.23;43.51;94289.50;5032641;28;21119;-75
2021/09/22 05:02:04;;;;;;;11.18;8.63;;;;;;;12.33;43.45;94289.22;5050562;28;20675;-75
2021/09/22 05:04:29;;;;;;;8.98;7.60;;;;;;;12.51;43.38;94290.81;5038877;28;20152;-75
2021/09/22 05:06:55;;;;;;;9.43;7.57;;;;;;;12.54;42.86;94308.88;5036672;28;20041;-74
2021/09/22 05:09:21;;;;;;;8.02;7.15;;;;;;;12.48;43.11;94302.09;5033256;28;20171;-74
2021/09/22 05:11:46;;;;;;;10.35;7.93;;;;;;;12.23;43.27;94300.19;5036805;28;20043;-74
2021/09/22 05:14:11;;;;;;;10.32;8.43;;;;;;;12.20;43.32;94306.16;5034644;28;20028;-74
2021/09/22 05:16:37;;;;;;;8.93;8.02;;;;;;;11.88;43.64;94305.41;5034914;28;20028;-75
2021/09/22 05:19:02;;;;;;;9.85;8.20;;;;;;;11.79;44.20;94307.28;5053859;28;20045;-74
2021/09/22 05:21:27;;;;;;;11.80;9.15;;;;;;;11.48;44.32;94267.34;5033837;28;20882;-74
2021/09/22 05:23:53;;;;;;;12.25;8.80;;;;;;;11.68;44.03;94292.69;5034221;28;20043;-75
2021/09/22 05:26:19;;;;;;;9.65;7.40;;;;;;;11.43;43.97;94259.47;5033542;28;20033;-75
2021/09/22 05:28:44;;;;;;;11.75;7.32;;;;;;;11.90;43.32;94303.25;5035357;28;20480;-75
2021/09/22 05:31:09;;;;;;;8.68;7.88;;;;;;;11.90;43.99;94313.91;5038167;28;20049;-75
2021/09/22 05:33:35;;;;;;;10.38;8.68;;;;;;;11.94;43.22;94304.19;5030713;28;20601;-75
2021/09/22 05:36:00;;;;;;;8.77;7.80;;;;;;;12.00;43.73;94310.97;5035965;28;20044;-76
2021/09/22 05:38:26;;;;;;;10.48;8.40;;;;;;;12.00;42.72;94313.63;5035439;28;20037;-75
2021/09/22 05:40:51;;;;;;;8.93;8.02;;;;;;;11.73;42.54;94319.19;5034999;28;20029;-75
2021/09/22 05:43:17;;;;;;;8.63;7.63;;;;;;;11.84;42.74;94303.69;5030452;28;20058;-74
2021/09/22 05:45:42;;;;;;;14.63;8.27;;;;;;;11.74;42.53;94287.97;5034216;28;20032;-75
2021/09/22 05:48:08;;;;;;;12.60;8.15;;;;;;;11.61;42.77;94313.63;5033049;28;20047;-75
2021/09/22 05:50:33;;;;;;;9.82;7.53;;;;;;;11.57;42.86;94288.72;5030910;28;20557;-75
2021/09/22 05:52:58;;;;;;;9.80;7.45;;;;;;;11.86;42.56;94294.31;5037362;28;20037;-74
2021/09/22 05:55:25;;;;;;;9.48;6.70;;;;;;;11.85;42.67;94303.38;5031941;28;20041;-75
2021/09/22 05:57:50;;;;;;;10.50;7.03;;;;;;;12.06;42.70;94297.50;5034088;28;20464;-74
2021/09/22 06:00:16;;;;;;;8.88;6.55;;;;;;;12.02;42.50;94302.66;5033736;28;20076;-74
2021/09/22 06:02:41;;;;;;;9.95;6.65;;;;;;;12.10;42.33;94311.75;5030281;28;20057;-76
2021/09/22 06:05:08;;;;;;;12.20;7.03;;;;;;;12.10;42.65;94295.78;5032724;28;20032;-75
2021/09/22 06:07:34;;;;;;;12.75;7.70;;;;;;;12.13;42.33;94301.25;5034972;28;20076;-75
2021/09/22 06:09:59;;;;;;;8.73;6.90;;;;;;;12.23;42.60;94310.84;5031178;28;20090;-75
2021/09/22 06:12:24;;;;;;;8.38;7.00;;;;;;;12.23;42.63;94306.31;5032668;28;20045;-75
2021/09/22 06:14:50;;;;;;;8.02;6.88;;;;;;;11.98;42.85;94273.16;5030848;28;20033;-75
2021/09/22 06:17:15;;;;;;;9.38;7.70;;;;;;;11.97;42.84;94284.94;5028880;28;20505;-75
2021/09/22 06:19:41;;;;;;;11.15;7.78;;;;;;;11.74;42.65;94285.31;5031967;28;20627;-75
2021/09/22 06:22:06;;;;;;;11.43;7.80;;;;;;;11.70;43.19;94292.34;5034535;28;20210;-77
2021/09/22 06:24:32;;;;;;;9.95;7.97;;;;;;;11.53;43.97;94267.22;5050713;28;20041;-76
2021/09/22 06:26:58;;;;;;;9.07;6.85;;;;;;;11.57;43.67;94300.16;5027952;28;20507;-75
2021/09/22 06:29:23;;;;;;;10.82;7.28;;;;;;;11.27;43.95;94300.13;5030989;28;20087;-75
2021/09/22 06:31:48;;;;;;;8.63;6.50;;;;;;;11.18;44.04;94297.41;5033259;28;20037;-74
2021/09/22 06:34:14;;;;;;;11.20;7.60;;;;;;;11.23;44.01;94277.84;5034665;28;20064;-74
2021/09/22 06:36:39;;;;;;;8.57;6.47;;;;;;;11.17;44.14;94275.31;5035845;28;20108;-74
2021/09/22 06:39:06;;;;;;;8.65;6.65;;;;;;;11.29;43.33;94308.59;5035041;28;20032;-74
2021/09/22 06:41:32;;;;;;;8.68;6.65;;;;;;;11.22;43.83;94300.25;5035967;28;20388;-76
2021/09/22 06:43:58;;;;;;;7.88;6.55;;;;;;;10.94;43.38;94260.47;5034949;28;20021;-75
2021/09/22 06:46:23;;;;;;;14.02;7.40;;;;;;;11.12;43.26;94314.59;5034409;28;20037;-74
2021/09/22 06:48:49;;;;;;;9.13;5.65;;;;;;;11.13;43.58;94306.31;5035919;28;20029;-75
2021/09/22 06:51:18;;;;;;;9.15;6.90;;;;;;;11.05;43.75;94288.38;5033681;28;20440;-75
2021/09/22 06:53:44;;;;;;;10.30;6.68;;;;;;;11.26;44.04;94301.19;5035038;28;20044;-74
2021/09/22 06:56:10;;;;;;;9.10;6.38;;;;;;;11.31;43.74;94309.06;5033957;28;20024;-75
2021/09/22 06:58:35;;;;;;;10.48;7.35;;;;;;;11.31;43.80;94295.75;5033697;28;20037;-74
2021/09/22 07:01:01;;;;;;;13.05;7.60;;;;;;;11.23;43.77;94304.47;5032786;28;20033;-74
2021/09/22 07:03:26;;;;;;;8.10;6.55;;;;;;;10.92;43.64;94257.31;5034312;28;20037;-73
2021/09/22 07:05:52;;;;;;;9.57;7.38;;;;;;;11.00;43.89;94296.50;5032391;28;20028;-75
2021/09/22 07:08:17;;;;;;;8.70;6.50;;;;;;;11.04;44.12;94313.47;5032540;28;20132;-74
2021/09/22 07:10:43;;;;;;;10.60;7.78;;;;;;;10.80;44.57;94302.34;5029436;28;20455;-75
2021/09/22 07:13:09;;;;;;;16.08;6.97;;;;;;;10.99;44.01;94321.56;5033388;28;20033;-75
2021/09/22 07:15:34;;;;;;;7.97;5.93;;;;;;;11.04;44.59;94318.78;5033418;28;20029;-75
2021/09/22 07:18:00;;;;;;;9.55;5.95;;;;;;;11.30;43.42;94316.25;5033866;28;20032;-74
2021/09/22 07:20:26;;;;;;;10.73;6.53;;;;;;;11.43;43.58;94320.75;5034706;28;20086;-74
2021/09/22 07:22:52;;;;;;;10.68;6.22;;;;;;;11.49;43.38;94292.09;5035089;28;20025;-74
2021/09/22 07:25:18;;;;;;;7.82;6.70;;;;;;;11.60;42.77;94296.06;5027961;28;20044;-74
2021/09/22 07:27:43;;;;;;;9.93;6.55;;;;;;;11.73;42.54;94313.84;5033969;28;20044;-75
2021/09/22 07:30:13;;;;;;;9.95;6.32;;;;;;;11.55;42.84;94314.84;5034644;28;20036;-75
2021/09/22 07:32:40;;;;;;;10.20;7.10;;;;;;;11.54;43.37;94321.28;5032637;28;20048;-75
2021/09/22 07:35:05;;;;;;;7.93;5.55;;;;;;;11.38;43.68;94291.56;5034772;28;20017;-76
2021/09/22 07:37:31;;;;;;;8.77;6.78;;;;;;;11.70;43.12;94308.34;5045638;28;20044;-75
2021/09/22 07:39:56;;;;;;;8.02;6.70;;;;;;;11.63;42.61;94284.03;5031749;28;20037;-76
2021/09/22 07:42:22;;;;;;;8.90;7.10;;;;;;;11.76;42.97;94313.22;5032658;28;20072;-76
2021/09/22 07:44:49;;;;;;;8.45;7.55;;;;;;;11.69;43.11;94291.56;5031147;28;20068;-76
2021/09/22 07:47:16;;;;;;;12.63;6.60;;;;;;;11.83;43.48;94302.13;5035152;28;20108;-77
2021/09/22 07:49:43;;;;;;;10.52;7.53;;;;;;;11.56;43.61;94289.78;5033192;28;20028;-76
2021/09/22 07:52:10;;;;;;;11.63;6.38;;;;;;;11.71;43.51;94315.25;5029039;28;20392;-75
2021/09/22 07:54:35;;;;;;;11.02;7.05;;;;;;;11.77;43.79;94304.16;5029438;28;20568;-75
2021/09/22 07:57:01;;;;;;;8.25;6.53;;;;;;;11.83;44.33;94313.56;5030202;28;20034;-75
2021/09/22 07:59:26;;;;;;;16.73;8.52;;;;;;;11.75;43.60;94309.00;5029459;28;20084;-75
2021/09/22 08:01:52;;;;;;;10.65;7.45;;;;;;;11.61;43.86;94308.31;5029953;28;20033;-75
2021/09/22 08:04:17;;;;;;;10.35;6.45;;;;;;;11.58;43.58;94314.25;5032568;28;20032;-76
2021/09/22 08:06:43;;;;;;;12.38;8.48;;;;;;;11.42;43.89;94313.03;5030796;28;20093;-74
2021/09/22 08:09:08;;;;;;;11.65;8.60;;;;;;;11.31;44.06;94311.72;5030062;28;20120;-76
2021/09/22 08:11:33;;;;;;;10.63;7.25;;;;;;;11.29;44.54;94305.94;5031030;28;20075;-75
2021/09/22 08:13:59;;;;;;;10.10;7.00;;;;;;;11.15;44.56;94261.53;5031143;28;20111;-75
2021/09/22 08:16:24;;;;;;;10.88;7.32;;;;;;;11.60;43.47;94302.19;5031573;28;20511;-75
2021/09/22 08:18:50;;;;;;;9.85;7.65;;;;;;;11.56;43.65;94276.47;5033604;28;20044;-76
2021/09/22 08:21:15;;;;;;;9.07;6.97;;;;;;;11.54;43.36;94294.66;5033404;28;20120;-75
2021/09/22 08:23:42;;;;;;;10.00;7.50;;;;;;;11.42;43.57;94289.06;5031561;28;20041;-76
2021/09/22 08:26:08;;;;;;;9.02;7.72;;;;;;;11.40;44.19;94284.03;5031181;28;20871;-74
2021/09/22 08:28:33;;;;;;;10.25;7.65;;;;;;;11.40;44.14;94269.94;5025790;28;20040;-73
2021/09/22 08:30:59;;;;;;;9.55;7.65;;;;;;;11.33;43.67;94283.72;5047076;28;20061;-74
2021/09/22 08:33:24;;;;;;;10.15;8.80;;;;;;;10.84;43.72;94266.03;5029372;28;20531;-73
2021/09/22 08:35:50;;;;;;;13.02;9.25;;;;;;;11.00;43.78;94285.84;5030497;28;20029;-75
2021/09/22 08:38:16;;;;;;;10.73;8.73;;;;;;;11.23;43.88;94288.50;5032259;28;20442;-74
2021/09/22 08:40:42;;;;;;;11.70;8.23;;;;;;;11.08;43.20;94257.72;5032159;28;20039;-73
2021/09/22 08:43:07;;;;;;;12.27;9.48;;;;;;;11.07;42.71;94238.31;5025698;28;20034;-74
2021/09/22 08:45:34;;;;;;;11.23;8.85;;;;;;;11.23;42.95;94260.00;5033426;28;20467;-73
2021/09/22 08:48:00;;;;;;;10.57;8.60;;;;;;;11.17;43.27;94274.53;5033241;28;20095;-75
2021/09/22 08:50:25;;;;;;;12.25;9.40;;;;;;;11.19;43.80;94264.38;5028721;28;20064;-74
2021/09/22 08:52:51;;;;;;;12.85;10.23;;;;;;;11.38;43.22;94272.13;5028753;28;20029;-76
2021/09/22 08:55:17;;;;;;;12.25;9.48;;;;;;;11.47;43.35;94273.75;5028997;28;20041;-74
2021/09/22 08:57:42;;;;;;;13.32;9.25;;;;;;;11.62;43.07;94267.25;5030718;28;20044;-74
2021/09/22 09:00:10;;;;;;;12.32;8.43;;;;;;;11.62;42.81;94258.47;5030842;28;20669;-75
2021/09/22 09:02:38;;;;;;;11.52;8.52;;;;;;;11.63;42.33;94250.19;5048017;28;20087;-74
2021/09/22 09:05:07;;;;;;;13.70;8.02;;;;;;;11.61;41.94;94236.38;5036115;28;20109;-74
2021/09/22 09:07:34;;;;;;;9.52;8.07;;;;;;;11.70;42.49;94253.16;5032492;28;20052;-75
2021/09/22 09:10:07;;;;;;;9.82;8.20;;;;;;;11.53;41.63;94255.78;5035329;28;20567;-74
2021/09/22 09:12:33;;;;;;;12.75;8.73;;;;;;;11.58;42.50;94253.00;5033025;28;20444;-75
2021/09/22 09:15:02;;;;;;;12.88;8.48;;;;;;;11.31;42.06;94258.47;5050807;28;20043;-75
2021/09/22 09:17:58;;;;;;;12.23;8.45;;;;;;;10.81;42.52;94186.06;5033626;28;20029;-75
2021/09/22 09:20:25;;;;;;;10.18;8.20;;;;;;;11.20;43.34;94267.84;5036190;28;20024;-74
2021/09/22 09:23:06;;;;;;;9.80;7.75;;;;;;;11.18;42.79;94252.94;5037217;28;20383;-76
2021/09/22 09:25:44;;;;;;;9.20;7.75;;;;;;;10.92;43.38;94230.72;5031410;28;20041;-74
2021/09/22 09:28:27;;;;;;;12.05;8.38;;;;;;;11.07;43.55;94248.16;5035768;28;20340;-74
2021/09/22 09:31:00;;;;;;;13.07;7.63;;;;;;;11.10;43.00;94227.03;5034825;28;20037;-74
2021/09/22 09:33:37;;;;;;;9.68;7.70;;;;;;;11.19;43.43;94251.06;5035165;28;20045;-74
2021/09/22 09:36:13;;;;;;;14.43;8.82;;;;;;;11.13;43.36;94241.63;5034930;28;20124;-75
2021/09/22 09:38:38;;;;;;;10.95;7.45;;;;;;;11.28;42.76;94243.13;5035542;28;20196;-74
2021/09/22 09:41:03;;;;;;;13.70;9.52;;;;;;;11.23;43.20;94222.72;5035553;28;20066;-77
2021/09/22 09:43:29;;;;;;;9.35;7.88;;;;;;;11.16;43.27;94235.69;5033509;28;20034;-75
2021/09/22 09:45:54;;;;;;;11.52;7.82;;;;;;;11.11;43.92;94243.81;5032553;28;20459;-75
2021/09/22 09:48:22;;;;;;;10.57;7.75;;;;;;;10.89;44.06;94207.38;5033129;28;20052;-75
2021/09/22 09:50:59;;;;;;;9.43;6.88;;;;;;;11.07;44.28;94242.84;5032112;28;20152;-74
2021/09/22 09:53:30;;;;;;;11.13;7.40;;;;;;;11.21;43.19;94243.53;5033117;28;20114;-75
2021/09/22 09:55:59;;;;;;;8.77;7.82;;;;;;;11.27;43.28;94242.31;5032824;28;20036;-76
2021/09/22 09:58:40;;;;;;;10.65;8.52;;;;;;;11.45;43.10;94227.19;5034459;28;20044;-76
2021/09/22 10:01:05;;;;;;;10.57;8.18;;;;;;;11.40;43.15;94222.00;5032047;28;20048;-75
2021/09/22 10:03:31;;;;;;;8.63;7.30;;;;;;;11.30;43.58;94230.25;5030228;28;20503;-76
2021/09/22 10:05:58;;;;;;;12.00;6.85;;;;;;;11.32;43.07;94228.09;5030361;28;20037;-76
2021/09/22 10:08:25;;;;;;;11.02;7.47;;;;;;;11.36;43.26;94223.72;5031903;28;20046;-76
2021/09/22 10:10:54;;;;;;;17.45;7.57;;;;;;;11.37;43.64;94241.28;5035756;28;20033;-75
2021/09/22 10:13:21;;;;;;;10.40;7.45;;;;;;;11.47;43.54;94241.78;5033475;28;20094;-75
2021/09/22 10:15:49;;;;;;;10.98;7.75;;;;;;;11.45;43.79;94240.50;5031732;28;20403;-75
2021/09/22 10:18:16;;;;;;;10.45;7.30;;;;;;;11.52;43.37;94230.25;5030910;28;20055;-76
2021/09/22 10:20:44;;;;;;;13.05;7.95;;;;;;;11.68;43.12;94231.41;5032374;28;20055;-75
2021/09/22 10:23:11;;;;;;;10.02;7.18;;;;;;;11.80;42.92;94228.91;5027283;28;20037;-75
2021/09/22 10:25:38;;;;;;;16.80;9.57;;;;;;;11.65;43.08;94221.34;5028376;28;20136;-75
2021/09/22 10:28:04;;;;;;;11.50;8.90;;;;;;;11.63;43.06;94231.53;5029642;28;21079;-75
2021/09/22 10:30:36;;;;;;;12.57;8.18;;;;;;;11.58;43.13;94221.03;5031896;28;20037;-75
2021/09/22 10:33:02;;;;;;;11.93;7.78;;;;;;;11.58;43.58;94231.69;5032016;28;20566;-76
2021/09/22 10:35:41;;;;;;;13.60;10.10;;;;;;;11.63;42.80;94222.75;5030471;28;20060;-75
2021/09/22 10:38:19;;;;;;;9.93;7.90;;;;;;;11.34;43.18;94212.59;5026181;28;20029;-75
2021/09/22 10:40:49;;;;;;;11.40;8.55;;;;;;;11.40;43.65;94206.81;5027741;28;20061;-76
2021/09/22 10:43:14;;;;;;;9.45;7.90;;;;;;;11.39;44.00;94207.94;5030284;28;20500;-75
2021/09/22 10:46:00;;;;;;;17.35;8.65;;;;;;;11.57;44.14;94184.81;5029229;28;20094;-74
2021/09/22 10:48:25;;;;;;;;;;;;;;;11.69;43.70;94194.84;5026920;28;20048;-75
2021/09/22 10:50:55;;;;;;;7.78;6.80;;;;;;;11.63;43.87;94194.25;5030770;28;19947;-76
2021/09/22 10:53:33;;;;;;;11.07;8.05;;;;;;;11.58;44.12;94197.03;5031418;28;20517;-76
2021/09/22 10:55:59;;;;;;;9.68;7.25;;;;;;;11.63;43.90;94174.81;5024751;28;20040;-75
2021/09/22 10:58:32;;;;;;;13.23;8.40;;;;;;;11.56;44.02;94181.38;5034372;28;20033;-76
2021/09/22 11:00:58;;;;;;;12.80;8.00;;;;;;;11.52;43.80;94191.06;5033404;28;20521;-75
2021/09/22 11:03:45;;;;;;;10.13;7.60;;;;;;;11.53;43.79;94191.88;5030999;28;20037;-76
2021/09/22 11:06:48;;;;;;;9.52;7.75;;;;;;;11.56;43.99;94185.91;5030096;28;20112;-75
2021/09/22 11:09:28;;;;;;;13.15;8.18;;;;;;;11.56;43.52;94175.25;5032905;28;20047;-77
2021/09/22 11:11:58;;;;;;;10.77;7.85;;;;;;;11.47;43.19;94201.06;5034460;28;20499;-75
2021/09/22 11:14:31;;;;;;;8.75;7.40;;;;;;;11.48;44.02;94199.97;5034697;28;20025;-75
2021/09/22 11:16:58;;;;;;;10.13;7.45;;;;;;;11.63;44.04;94201.44;5032527;28;20116;-75
2021/09/22 11:19:24;;;;;;;9.55;7.85;;;;;;;11.73;43.05;94193.94;5030066;28;20491;-75
2021/09/22 11:21:50;;;;;;;9.32;7.35;;;;;;;11.78;42.77;94182.34;5029354;28;20313;-76
2021/09/22 11:24:23;;;;;;;10.50;6.30;;;;;;;12.01;43.10;94197.91;5034027;28;21059;-78